Pagrindinis puslapis
METAR-TAF:

METAR-TAF

Oro uostai :

Kamranio oro uostas

Kamranis, Vietnamas

platuma: 11-59-53N, ilguma: 109-13-10E, Aukštis: 12 m

Dabartinis oras

Ataskaita buvo paskelbta 44 minutes, ne 00:00 UTC
Vėjas 2 kt iš Vakarų/Šiaurės Vakarų
Temperatūra 20°C
Drėgmė 94%
Slėgis 1009 hPa
Matomumas: 8000 m

METAR: VVCR 260000Z 30002KT 8000 NSC 20/19 Q1009 NOSIG

Laikas: 07:44 (00:44 UTC)

Prognozė

Ataskaita buvo paskelbta 1 valandą ir 44 minutes, ne 23:00 UTC
Prognozė galioja nuo 26 metu 00 UTC su 26 metu 24 UTC
Vėjas 4 kt iš Šiaurės Vakarų
Matomumas 10 km arba daugiau
Mažai debesys ne aukštis 1500 ft
Tapsmas
nuo 26 metu 02 UTC su 26 metu 03 UTC
Vėjas 10 kt iš Rytų/Šiaurės Rytų
Tapsmas
nuo 26 metu 12 UTC su 26 metu 13 UTC
Vėjas 5 kt iš Šiaurės Vakarų

TAF: VVCR 252300Z 2600/2624 31004KT 9999 FEW015 BECMG 2602/2603 07010KT BECMG 2612/2613 32005KT

Orai ataskaitas ir orų prognozės (METAR, TAF).

turimą stotys yra geltonos ir raudonos taškus žemėlapyje.

Perkelti pele per norėdami pamatyti stoties vardą.

Tada spustelėkite, norėdami matyti oro stebėjimo ir prognozės.

Norėdami pakeisti žemėlapį: spustelėkite ant žalios mygtukų su juodo kryžiaus žemyn,; žalią mygtuką su brūkšneliu, jei norite nutolinti; arba žalių rodyklių gretimoms žemėlapius.


METAR-TAF: